CST,Max TemperatureF,Mean TemperatureF,Min TemperatureF,Max Dew PointF,MeanDew PointF,Min DewpointF,Max Humidity, Mean Humidity, Min Humidity, Max Sea Level PressureIn, Mean Sea Level PressureIn, Min Sea Level PressureIn, Max VisibilityMiles, Mean VisibilityMiles, Min VisibilityMiles, Max Wind SpeedMPH, Mean Wind SpeedMPH, Max Gust SpeedMPH,PrecipitationIn, CloudCover, Events, WindDirDegrees
2013-2-1,22,11,-1,15,-2,-9,75,68,60,30.45,30.34,30.15,10,10,10,20,10,28,T,4,,252
2013-2-2,26,21,15,21,13,7,88,75,61,30.15,30.08,30.01,10,6,1,18,8,23,0.05,7,Snow,270
2013-2-3,26,21,16,18,14,9,92,74,55,30.14,30.05,29.96,10,9,6,28,10,36,T,5,Snow,276
2013-2-4,29,21,12,20,16,10,92,80,68,30.01,29.92,29.80,10,10,10,16,7,21,0.00,2,,58
2013-2-5,37,25,13,29,23,11,88,79,69,30.12,29.94,29.83,10,9,5,21,8,28,T,6,,280
2013-2-6,45,32,18,33,27,17,91,77,62,30.20,30.12,30.01,10,9,5,17,6,23,0.06,1,Rain,161
2013-2-7,38,35,32,36,34,28,100,93,85,30.09,29.97,29.87,10,5,1,16,6,22,0.74,8,Rain,68
2013-2-8,32,29,26,27,23,20,85,77,69,30.39,30.30,30.07,10,10,10,14,7,20,0.00,8,,18
2013-2-9,37,32,26,29,25,22,92,78,64,30.38,30.22,30.01,10,10,7,20,9,25,0.00,6,,147
2013-2-10,50,42,34,46,37,30,93,75,56,30.00,29.66,29.39,10,7,2,30,16,43,0.30,8,Rain,163
2013-2-11,37,33,29,27,22,20,76,68,59,30.12,29.88,29.58,10,10,10,37,22,51,0.00,8,,274
2013-2-12,38,32,26,25,22,19,85,70,54,30.15,30.05,29.91,10,10,10,18,7,22,0.00,4,,274
2013-2-13,44,35,25,30,27,22,85,69,53,29.89,29.79,29.70,10,10,6,14,7,21,0.00,2,,246
2013-2-14,42,36,30,31,29,25,82,69,55,30.06,29.87,29.68,10,10,5,25,13,37,T,6,Snow,282
2013-2-15,32,25,18,22,12,8,78,59,39,30.27,30.22,30.08,10,10,10,22,13,28,T,2,,307
2013-2-16,27,20,12,12,9,5,80,65,50,30.27,30.22,30.16,10,10,10,18,9,23,T,2,,314
2013-2-17,37,24,11,22,14,6,84,66,47,30.21,30.10,29.86,10,10,10,20,10,25,0.00,0,,128
2013-2-18,57,38,19,43,29,11,92,72,51,29.83,29.63,29.50,10,7,1,33,15,45,0.41,6,Rain-Snow,256
2013-2-19,22,15,8,12,5,-1,74,65,56,30.34,30.00,29.80,10,10,5,35,21,44,T,5,Snow,291
2013-2-20,24,14,4,13,6,-3,80,70,60,30.47,30.40,30.34,10,10,10,16,7,22,0.00,0,,326
2013-2-21,29,20,11,24,18,7,88,81,73,30.39,30.14,29.89,10,6,0,31,13,37,0.22,5,Fog-Snow,80
2013-2-22,32,28,24,27,23,18,92,81,69,29.98,29.87,29.77,10,6,1,20,11,25,0.07,8,Snow,206
2013-2-23,31,21,11,20,16,10,88,76,63,30.01,29.98,29.94,10,10,7,16,8,21,0.00,4,,260
2013-2-24,35,22,8,24,16,5,92,76,59,30.14,30.10,30.03,10,6,3,10,3,12,0.00,0,,112
2013-2-25,40,28,16,29,23,15,92,78,64,30.14,30.07,29.91,10,5,2,18,6,23,0.00,1,,78
2013-2-26,36,34,31,30,28,26,100,85,70,29.88,29.62,29.55,10,3,0,30,17,44,0.44,8,Fog-Snow,35
2013-2-27,33,32,30,30,28,26,92,87,82,29.84,29.72,29.63,10,4,0,16,10,21,0.22,8,Fog-Snow,321
2013-2-28,35,33,31,29,28,26,92,81,70,30.12,30.00,29.82,10,7,2,15,9,21,0.03,8,Snow,326